sensor_id;sensor_type;location;lat;lon;timestamp;temperature;humidity
47434;SHT31;33184;48.774;8.918;2023-01-16T00:01:26;1.97;81.46
47434;SHT31;33184;48.774;8.918;2023-01-16T00:06:46;1.99;81.44
47434;SHT31;33184;48.774;8.918;2023-01-16T00:12:07;2.02;81.21
47434;SHT31;33184;48.774;8.918;2023-01-16T00:17:27;2.05;81.03
47434;SHT31;33184;48.774;8.918;2023-01-16T00:22:48;1.99;81.17
47434;SHT31;33184;48.774;8.918;2023-01-16T00:28:10;1.99;81.39
47434;SHT31;33184;48.774;8.918;2023-01-16T00:33:32;1.95;81.60
47434;SHT31;33184;48.774;8.918;2023-01-16T00:38:52;1.88;81.61
47434;SHT31;33184;48.774;8.918;2023-01-16T00:44:15;1.73;81.90
47434;SHT31;33184;48.774;8.918;2023-01-16T00:49:36;1.70;81.94
47434;SHT31;33184;48.774;8.918;2023-01-16T00:54:57;1.70;81.84
47434;SHT31;33184;48.774;8.918;2023-01-16T01:00:18;1.66;81.85
47434;SHT31;33184;48.774;8.918;2023-01-16T01:05:41;1.61;82.05
47434;SHT31;33184;48.774;8.918;2023-01-16T01:11:06;1.63;81.91
47434;SHT31;33184;48.774;8.918;2023-01-16T01:16:27;1.53;82.27
47434;SHT31;33184;48.774;8.918;2023-01-16T01:21:48;1.60;82.11
47434;SHT31;33184;48.774;8.918;2023-01-16T01:27:08;1.56;82.12
47434;SHT31;33184;48.774;8.918;2023-01-16T01:32:29;1.50;82.41
47434;SHT31;33184;48.774;8.918;2023-01-16T01:37:49;1.50;82.26
47434;SHT31;33184;48.774;8.918;2023-01-16T01:43:12;1.50;82.35
47434;SHT31;33184;48.774;8.918;2023-01-16T01:48:39;1.51;82.23
47434;SHT31;33184;48.774;8.918;2023-01-16T01:54:05;1.56;81.91
47434;SHT31;33184;48.774;8.918;2023-01-16T01:59:35;1.58;81.80
47434;SHT31;33184;48.774;8.918;2023-01-16T02:04:57;1.57;81.79
47434;SHT31;33184;48.774;8.918;2023-01-16T02:15:50;1.56;81.93
47434;SHT31;33184;48.774;8.918;2023-01-16T02:21:50;1.58;81.88
47434;SHT31;33184;48.774;8.918;2023-01-16T02:27:57;1.61;81.81
47434;SHT31;33184;48.774;8.918;2023-01-16T02:33:26;1.68;81.49
47434;SHT31;33184;48.774;8.918;2023-01-16T02:39:06;1.75;81.01
47434;SHT31;33184;48.774;8.918;2023-01-16T02:44:30;1.77;80.97
47434;SHT31;33184;48.774;8.918;2023-01-16T02:55:48;1.67;81.11
47434;SHT31;33184;48.774;8.918;2023-01-16T03:01:10;1.74;80.69
47434;SHT31;33184;48.774;8.918;2023-01-16T03:06:44;1.88;80.43
47434;SHT31;33184;48.774;8.918;2023-01-16T03:23:40;2.35;78.28
47434;SHT31;33184;48.774;8.918;2023-01-16T03:29:27;2.42;78.05
47434;SHT31;33184;48.774;8.918;2023-01-16T03:35:06;2.53;77.27
47434;SHT31;33184;48.774;8.918;2023-01-16T03:40:33;2.62;76.86
47434;SHT31;33184;48.774;8.918;2023-01-16T03:46:12;2.60;77.06
47434;SHT31;33184;48.774;8.918;2023-01-16T03:51:38;2.59;76.72
47434;SHT31;33184;48.774;8.918;2023-01-16T03:57:08;2.56;76.77
47434;SHT31;33184;48.774;8.918;2023-01-16T04:08:05;2.59;76.64
47434;SHT31;33184;48.774;8.918;2023-01-16T04:13:33;2.65;75.86
47434;SHT31;33184;48.774;8.918;2023-01-16T04:18:55;2.74;75.15
47434;SHT31;33184;48.774;8.918;2023-01-16T04:24:18;2.74;75.24
47434;SHT31;33184;48.774;8.918;2023-01-16T04:29:39;2.57;75.90
47434;SHT31;33184;48.774;8.918;2023-01-16T04:34:59;2.50;76.22
47434;SHT31;33184;48.774;8.918;2023-01-16T04:40:20;2.53;75.86
47434;SHT31;33184;48.774;8.918;2023-01-16T04:45:40;2.48;76.04
47434;SHT31;33184;48.774;8.918;2023-01-16T04:51:01;2.39;76.50
47434;SHT31;33184;48.774;8.918;2023-01-16T04:56:21;2.31;76.92
47434;SHT31;33184;48.774;8.918;2023-01-16T05:01:42;2.26;77.04
47434;SHT31;33184;48.774;8.918;2023-01-16T05:07:02;2.26;77.02
47434;SHT31;33184;48.774;8.918;2023-01-16T05:12:23;2.28;76.74
47434;SHT31;33184;48.774;8.918;2023-01-16T05:17:45;2.28;76.71
47434;SHT31;33184;48.774;8.918;2023-01-16T05:23:06;2.28;76.77
47434;SHT31;33184;48.774;8.918;2023-01-16T05:28:29;2.23;76.86
47434;SHT31;33184;48.774;8.918;2023-01-16T05:33:50;2.18;76.95
47434;SHT31;33184;48.774;8.918;2023-01-16T05:39:10;2.18;76.93
47434;SHT31;33184;48.774;8.918;2023-01-16T05:44:31;2.18;76.78
47434;SHT31;33184;48.774;8.918;2023-01-16T05:49:51;2.21;76.56
47434;SHT31;33184;48.774;8.918;2023-01-16T05:55:12;2.31;75.78
47434;SHT31;33184;48.774;8.918;2023-01-16T06:00:32;2.39;75.36
47434;SHT31;33184;48.774;8.918;2023-01-16T06:05:53;2.38;75.18
47434;SHT31;33184;48.774;8.918;2023-01-16T06:11:13;2.32;75.59
47434;SHT31;33184;48.774;8.918;2023-01-16T06:16:34;2.19;76.10
47434;SHT31;33184;48.774;8.918;2023-01-16T06:21:55;2.12;76.60
47434;SHT31;33184;48.774;8.918;2023-01-16T06:27:15;2.15;76.68
47434;SHT31;33184;48.774;8.918;2023-01-16T06:32:36;2.15;76.50
47434;SHT31;33184;48.774;8.918;2023-01-16T06:37:56;2.21;76.06
47434;SHT31;33184;48.774;8.918;2023-01-16T06:43:17;2.19;75.95
47434;SHT31;33184;48.774;8.918;2023-01-16T06:48:38;2.29;75.38
47434;SHT31;33184;48.774;8.918;2023-01-16T06:53:58;2.38;74.86
47434;SHT31;33184;48.774;8.918;2023-01-16T06:59:19;2.43;74.44
47434;SHT31;33184;48.774;8.918;2023-01-16T07:04:39;2.46;74.45
47434;SHT31;33184;48.774;8.918;2023-01-16T07:10:00;2.49;73.90
47434;SHT31;33184;48.774;8.918;2023-01-16T07:15:21;2.53;73.62
47434;SHT31;33184;48.774;8.918;2023-01-16T07:21:03;2.52;74.03
47434;SHT31;33184;48.774;8.918;2023-01-16T07:26:44;2.46;74.05
47434;SHT31;33184;48.774;8.918;2023-01-16T07:32:05;2.57;73.42
47434;SHT31;33184;48.774;8.918;2023-01-16T07:37:27;2.53;73.81
47434;SHT31;33184;48.774;8.918;2023-01-16T07:42:49;2.53;73.73
47434;SHT31;33184;48.774;8.918;2023-01-16T07:48:10;2.56;73.78
47434;SHT31;33184;48.774;8.918;2023-01-16T07:53:31;2.59;73.73
47434;SHT31;33184;48.774;8.918;2023-01-16T07:58:51;2.60;73.50
47434;SHT31;33184;48.774;8.918;2023-01-16T08:04:15;2.66;72.92
47434;SHT31;33184;48.774;8.918;2023-01-16T08:09:36;2.63;73.59
47434;SHT31;33184;48.774;8.918;2023-01-16T08:14:57;2.56;73.64
47434;SHT31;33184;48.774;8.918;2023-01-16T08:20:17;2.56;73.99
47434;SHT31;33184;48.774;8.918;2023-01-16T08:25:38;2.53;73.83
47434;SHT31;33184;48.774;8.918;2023-01-16T08:31:10;2.55;73.93
47434;SHT31;33184;48.774;8.918;2023-01-16T08:36:33;2.55;74.38
47434;SHT31;33184;48.774;8.918;2023-01-16T08:41:53;2.50;74.56
47434;SHT31;33184;48.774;8.918;2023-01-16T08:47:32;2.55;74.15
47434;SHT31;33184;48.774;8.918;2023-01-16T08:53:12;2.55;74.28
47434;SHT31;33184;48.774;8.918;2023-01-16T08:58:32;2.60;73.85
47434;SHT31;33184;48.774;8.918;2023-01-16T09:03:53;2.60;74.02
47434;SHT31;33184;48.774;8.918;2023-01-16T09:09:13;2.53;74.15
47434;SHT31;33184;48.774;8.918;2023-01-16T09:14:34;2.55;73.93
47434;SHT31;33184;48.774;8.918;2023-01-16T09:19:54;2.62;73.65
47434;SHT31;33184;48.774;8.918;2023-01-16T09:25:15;2.74;72.97
47434;SHT31;33184;48.774;8.918;2023-01-16T09:30:35;2.87;72.26
47434;SHT31;33184;48.774;8.918;2023-01-16T09:35:56;2.98;72.16
47434;SHT31;33184;48.774;8.918;2023-01-16T09:41:18;3.15;71.41
47434;SHT31;33184;48.774;8.918;2023-01-16T09:46:58;3.24;70.85
47434;SHT31;33184;48.774;8.918;2023-01-16T09:52:23;3.38;70.37
47434;SHT31;33184;48.774;8.918;2023-01-16T09:58:05;3.52;70.15
47434;SHT31;33184;48.774;8.918;2023-01-16T10:03:44;3.73;68.50
47434;SHT31;33184;48.774;8.918;2023-01-16T10:09:16;3.82;68.28
47434;SHT31;33184;48.774;8.918;2023-01-16T10:14:48;3.92;67.37
47434;SHT31;33184;48.774;8.918;2023-01-16T10:20:34;3.97;66.79
47434;SHT31;33184;48.774;8.918;2023-01-16T10:31:41;4.07;66.07
47434;SHT31;33184;48.774;8.918;2023-01-16T10:37:04;4.07;67.03
47434;SHT31;33184;48.774;8.918;2023-01-16T10:42:29;4.09;66.32
47434;SHT31;33184;48.774;8.918;2023-01-16T10:48:11;4.17;65.27
47434;SHT31;33184;48.774;8.918;2023-01-16T10:53:51;4.31;65.49
47434;SHT31;33184;48.774;8.918;2023-01-16T10:59:12;4.60;63.83
47434;SHT31;33184;48.774;8.918;2023-01-16T11:04:35;4.60;64.75
47434;SHT31;33184;48.774;8.918;2023-01-16T11:09:57;4.58;66.08
47434;SHT31;33184;48.774;8.918;2023-01-16T11:15:22;4.55;67.29
47434;SHT31;33184;48.774;8.918;2023-01-16T11:21:23;4.48;68.58
47434;SHT31;33184;48.774;8.918;2023-01-16T11:26:54;4.44;69.45
47434;SHT31;33184;48.774;8.918;2023-01-16T11:32:18;4.41;70.25
47434;SHT31;33184;48.774;8.918;2023-01-16T11:37:49;4.41;70.99
47434;SHT31;33184;48.774;8.918;2023-01-16T11:43:16;4.47;71.85
47434;SHT31;33184;48.774;8.918;2023-01-16T11:48:58;4.50;72.23
47434;SHT31;33184;48.774;8.918;2023-01-16T11:54:25;4.60;71.35
47434;SHT31;33184;48.774;8.918;2023-01-16T12:11:24;4.69;70.79
47434;SHT31;33184;48.774;8.918;2023-01-16T13:02:43;5.13;72.54
47434;SHT31;33184;48.774;8.918;2023-01-16T13:13:57;5.34;73.12
47434;SHT31;33184;48.774;8.918;2023-01-16T13:19:31;5.50;72.49
47434;SHT31;33184;48.774;8.918;2023-01-16T13:30:31;6.62;68.42
47434;SHT31;33184;48.774;8.918;2023-01-16T13:36:24;6.89;67.04
47434;SHT31;33184;48.774;8.918;2023-01-16T13:41:50;6.83;67.50
47434;SHT31;33184;48.774;8.918;2023-01-16T13:47:16;6.81;68.06
47434;SHT31;33184;48.774;8.918;2023-01-16T13:52:41;6.49;68.25
47434;SHT31;33184;48.774;8.918;2023-01-16T13:58:14;5.81;70.45
47434;SHT31;33184;48.774;8.918;2023-01-16T14:03:35;5.44;71.67
47434;SHT31;33184;48.774;8.918;2023-01-16T14:20:34;4.92;75.19
47434;SHT31;33184;48.774;8.918;2023-01-16T14:25:58;4.89;75.32
47434;SHT31;33184;48.774;8.918;2023-01-16T14:32:01;4.75;76.44
47434;SHT31;33184;48.774;8.918;2023-01-16T14:42:50;4.17;78.93
47434;SHT31;33184;48.774;8.918;2023-01-16T14:48:34;4.10;78.98
47434;SHT31;33184;48.774;8.918;2023-01-16T14:54:24;4.06;79.03
47434;SHT31;33184;48.774;8.918;2023-01-16T15:00:10;4.17;78.62
47434;SHT31;33184;48.774;8.918;2023-01-16T15:05:39;4.26;78.40
47434;SHT31;33184;48.774;8.918;2023-01-16T15:11:24;4.28;77.82
47434;SHT31;33184;48.774;8.918;2023-01-16T15:22:51;4.33;78.21
47434;SHT31;33184;48.774;8.918;2023-01-16T15:28:21;4.18;80.16
47434;SHT31;33184;48.774;8.918;2023-01-16T15:33:44;3.99;82.22
47434;SHT31;33184;48.774;8.918;2023-01-16T15:44:42;3.73;84.32
47434;SHT31;33184;48.774;8.918;2023-01-16T15:50:58;3.62;85.56
47434;SHT31;33184;48.774;8.918;2023-01-16T15:56:36;3.48;86.57
47434;SHT31;33184;48.774;8.918;2023-01-16T16:07:39;3.19;88.37
47434;SHT31;33184;48.774;8.918;2023-01-16T16:13:02;3.09;89.05
47434;SHT31;33184;48.774;8.918;2023-01-16T16:18:24;3.03;89.37
47434;SHT31;33184;48.774;8.918;2023-01-16T16:23:45;3.00;89.57
47434;SHT31;33184;48.774;8.918;2023-01-16T16:29:05;3.01;89.69
47434;SHT31;33184;48.774;8.918;2023-01-16T16:34:26;2.97;89.84
47434;SHT31;33184;48.774;8.918;2023-01-16T16:40:11;2.91;90.06
47434;SHT31;33184;48.774;8.918;2023-01-16T16:45:33;2.83;90.36
47434;SHT31;33184;48.774;8.918;2023-01-16T16:51:11;2.77;90.40
47434;SHT31;33184;48.774;8.918;2023-01-16T16:56:42;2.79;90.61
47434;SHT31;33184;48.774;8.918;2023-01-16T17:02:03;2.79;90.66
47434;SHT31;33184;48.774;8.918;2023-01-16T17:07:24;2.84;90.86
47434;SHT31;33184;48.774;8.918;2023-01-16T17:12:44;2.96;90.90
47434;SHT31;33184;48.774;8.918;2023-01-16T17:18:05;3.04;90.79
47434;SHT31;33184;48.774;8.918;2023-01-16T17:23:26;3.09;90.28
47434;SHT31;33184;48.774;8.918;2023-01-16T17:28:47;3.00;89.88
47434;SHT31;33184;48.774;8.918;2023-01-16T17:34:18;2.93;90.24
47434;SHT31;33184;48.774;8.918;2023-01-16T17:39:39;2.91;90.51
47434;SHT31;33184;48.774;8.918;2023-01-16T17:45:00;2.84;90.68
47434;SHT31;33184;48.774;8.918;2023-01-16T17:50:40;2.80;90.82
47434;SHT31;33184;48.774;8.918;2023-01-16T17:56:03;2.80;90.70
47434;SHT31;33184;48.774;8.918;2023-01-16T18:01:28;2.79;90.61
47434;SHT31;33184;48.774;8.918;2023-01-16T18:06:50;2.70;90.61
47434;SHT31;33184;48.774;8.918;2023-01-16T18:12:11;2.69;90.78
47434;SHT31;33184;48.774;8.918;2023-01-16T18:17:50;2.60;90.81
47434;SHT31;33184;48.774;8.918;2023-01-16T18:23:11;2.57;90.80
47434;SHT31;33184;48.774;8.918;2023-01-16T18:28:33;2.55;91.02
47434;SHT31;33184;48.774;8.918;2023-01-16T18:33:54;2.57;91.17
47434;SHT31;33184;48.774;8.918;2023-01-16T18:39:14;2.65;90.96
47434;SHT31;33184;48.774;8.918;2023-01-16T18:44:53;2.73;90.68
47434;SHT31;33184;48.774;8.918;2023-01-16T18:50:33;2.79;90.27
47434;SHT31;33184;48.774;8.918;2023-01-16T18:56:23;2.79;90.36
47434;SHT31;33184;48.774;8.918;2023-01-16T19:07:36;2.60;90.15
47434;SHT31;33184;48.774;8.918;2023-01-16T19:13:04;2.48;90.51
47434;SHT31;33184;48.774;8.918;2023-01-16T19:18:28;2.36;90.90
47434;SHT31;33184;48.774;8.918;2023-01-16T19:23:48;2.35;91.15
47434;SHT31;33184;48.774;8.918;2023-01-16T19:29:14;2.31;91.18
47434;SHT31;33184;48.774;8.918;2023-01-16T19:34:35;2.29;91.37
47434;SHT31;33184;48.774;8.918;2023-01-16T19:39:57;2.31;91.28
47434;SHT31;33184;48.774;8.918;2023-01-16T19:45:19;2.29;91.22
47434;SHT31;33184;48.774;8.918;2023-01-16T19:51:02;2.33;90.86
47434;SHT31;33184;48.774;8.918;2023-01-16T19:56:22;2.32;90.85
47434;SHT31;33184;48.774;8.918;2023-01-16T20:01:51;2.35;90.62
47434;SHT31;33184;48.774;8.918;2023-01-16T20:07:13;2.36;90.47
47434;SHT31;33184;48.774;8.918;2023-01-16T20:12:34;2.41;89.76
47434;SHT31;33184;48.774;8.918;2023-01-16T20:17:55;2.39;89.61
47434;SHT31;33184;48.774;8.918;2023-01-16T20:23:16;2.42;88.74
47434;SHT31;33184;48.774;8.918;2023-01-16T20:28:36;2.43;88.20
47434;SHT31;33184;48.774;8.918;2023-01-16T20:33:57;2.43;87.66
47434;SHT31;33184;48.774;8.918;2023-01-16T20:39:18;2.48;86.77
47434;SHT31;33184;48.774;8.918;2023-01-16T20:44:39;2.50;86.37
47434;SHT31;33184;48.774;8.918;2023-01-16T20:50:18;2.53;86.14
47434;SHT31;33184;48.774;8.918;2023-01-16T20:55:39;2.55;84.99
47434;SHT31;33184;48.774;8.918;2023-01-16T21:01:01;2.56;84.46
47434;SHT31;33184;48.774;8.918;2023-01-16T21:06:22;2.50;85.16
47434;SHT31;33184;48.774;8.918;2023-01-16T21:11:44;2.45;85.47
47434;SHT31;33184;48.774;8.918;2023-01-16T21:17:23;2.38;86.16
47434;SHT31;33184;48.774;8.918;2023-01-16T21:23:02;2.26;86.68
47434;SHT31;33184;48.774;8.918;2023-01-16T21:28:23;2.21;87.10
47434;SHT31;33184;48.774;8.918;2023-01-16T21:33:44;2.19;87.25
47434;SHT31;33184;48.774;8.918;2023-01-16T21:39:05;2.23;87.02
47434;SHT31;33184;48.774;8.918;2023-01-16T21:44:25;2.18;87.19
47434;SHT31;33184;48.774;8.918;2023-01-16T21:50:05;2.19;87.42
47434;SHT31;33184;48.774;8.918;2023-01-16T21:55:27;2.22;87.56
47434;SHT31;33184;48.774;8.918;2023-01-16T22:00:48;2.26;87.73
47434;SHT31;33184;48.774;8.918;2023-01-16T22:06:09;2.28;87.70
47434;SHT31;33184;48.774;8.918;2023-01-16T22:11:29;2.33;87.62
47434;SHT31;33184;48.774;8.918;2023-01-16T22:17:13;2.35;87.29
47434;SHT31;33184;48.774;8.918;2023-01-16T22:22:53;2.36;87.39
47434;SHT31;33184;48.774;8.918;2023-01-16T22:28:15;2.32;87.50
47434;SHT31;33184;48.774;8.918;2023-01-16T22:33:36;2.22;88.00
47434;SHT31;33184;48.774;8.918;2023-01-16T22:38:56;1.77;89.01
47434;SHT31;33184;48.774;8.918;2023-01-16T22:44:17;1.37;89.82
47434;SHT31;33184;48.774;8.918;2023-01-16T22:49:56;1.13;91.71
47434;SHT31;33184;48.774;8.918;2023-01-16T22:55:17;1.00;92.33
47434;SHT31;33184;48.774;8.918;2023-01-16T23:00:37;0.95;93.31
47434;SHT31;33184;48.774;8.918;2023-01-16T23:05:58;0.95;93.43
47434;SHT31;33184;48.774;8.918;2023-01-16T23:16:41;1.07;93.49
47434;SHT31;33184;48.774;8.918;2023-01-16T23:22:01;0.96;92.57
47434;SHT31;33184;48.774;8.918;2023-01-16T23:27:22;0.97;91.37
47434;SHT31;33184;48.774;8.918;2023-01-16T23:32:44;1.16;89.62
47434;SHT31;33184;48.774;8.918;2023-01-16T23:38:04;1.13;90.16
47434;SHT31;33184;48.774;8.918;2023-01-16T23:43:25;1.12;90.47
47434;SHT31;33184;48.774;8.918;2023-01-16T23:49:04;1.09;90.83
47434;SHT31;33184;48.774;8.918;2023-01-16T23:54:27;1.07;90.99
47434;SHT31;33184;48.774;8.918;2023-01-16T23:59:48;1.10;91.03
